Weather at Barton's Naivasha Airport

Public forecast

Using degrees Celsius for public forecast. Weather courtesy of forecast.io.

Closest aviation weather report (METAR) to Barton's Naivasha Airport

Closest report is Nakuru Airport, 30.9 nm (57.3 km) NNW.

2024/05/22 05:00 (retrieved 1 hour ago)

HKNK 220500Z 00000KT 9999 FEW018 17/14

Closest aviation forecast (TAF) to Barton's Naivasha Airport

Closest forecast is Nairobi Wilson Airport, 44.4 nm (82.2 km) SE.

2024/05/22 06:12 (retrieved 0 seconds ago)

TAF HKNW 220500Z 2206/2306 15010KT 9999 BKN023 TEMPO 2213/2217 -SHRA FEW022CB SCT023 BKN080 BECMG 2221/2224 VRB02KT SCT016 BKN080